PWSweather.com
Personal Weather Stations
Station Observations
01979
Ravne Pri CerknemSI 5282

Ravne Pri CerknemSI 5282

Lat: 46.1213916, Lon: 13.952774299999987

Elevation: 2244.094488

Station Type: Techo Line WS2307

www.vremenska.postaja.andre.si/

High Low Average
Temperature 39.4°F4.1°C 24.6°F-4.1°C 31.2°F-0.4°C
Dew Point 28.3°F-2.1°C 7.2°F-13.8°C 11.5°F-11.4°C
Winds 13.4 mph 21.6 kmh Calm Calm 4.0 mph ESE6.4 kmh ESE
Wind Gusts 23.7 mph38.1 kmh -- 9.0 mph14.5 kmh
Humidity 72% 29% 45%
Pressure 30.62 in1036.9 mb 30.42 in1030.1 mb -
Precipitation 0.00 in0.0 mm - -
Hour Temp Dew Point Humidity Winds Wind Gusts Pressure Precip Precip Rate Daily Precip Total
12:10 AM 36.5°F2.5°C 28.3°F-2.1°C 72% 2.9 mph NW4.7 kmh NW 6.9 mph11.1 kmh 30.42 in1030.1 mb 0.00 in0.0 mm 0.00 in0.0 mm 0.00 in0.0 mm
12:20 AM 35.8°F2.1°C 27.3°F-2.6°C 71% 4.0 mph NNW6.4 kmh NNW 8.7 mph14.0 kmh 30.43 in1030.5 mb 0.00 in0.0 mm 0.00 in0.0 mm 0.00 in0.0 mm
12:30 AM 34.9°F1.6°C 26.8°F-2.9°C 72% 3.3 mph WSW5.3 kmh WSW 8.7 mph14.0 kmh 30.42 in1030.1 mb 0.00 in0.0 mm 0.00 in0.0 mm 0.00 in0.0 mm
12:40 AM 34.5°F1.4°C 26.1°F-3.3°C 71% 5.6 mph NW9.0 kmh NW 17.0 mph27.4 kmh 30.43 in1030.5 mb 0.00 in0.0 mm 0.00 in0.0 mm 0.00 in0.0 mm
12:50 AM 34.2°F1.2°C 26.1°F-3.3°C 72% 10.6 mph NW17.1 kmh NW 17.0 mph27.4 kmh 30.43 in1030.5 mb 0.00 in0.0 mm 0.00 in0.0 mm 0.00 in0.0 mm
01:00 AM 34.0°F1.1°C 25.6°F-3.6°C 71% 6.8 mph SSW10.9 kmh SSW 9.6 mph15.4 kmh 30.44 in1030.8 mb 0.00 in0.0 mm 0.00 in0.0 mm 0.00 in0.0 mm
01:10 AM 34.0°F1.1°C 25.6°F-3.6°C 71% 9.6 mph SSW15.4 kmh SSW 9.6 mph15.4 kmh 30.44 in1030.8 mb 0.00 in0.0 mm 0.00 in0.0 mm 0.00 in0.0 mm
01:20 AM 34.0°F1.1°C 25.6°F-3.6°C 71% 9.6 mph SSW15.4 kmh SSW 9.6 mph15.4 kmh 30.44 in1030.8 mb 0.00 in0.0 mm 0.00 in0.0 mm 0.00 in0.0 mm
01:30 AM 31.8°F-0.1°C 23.5°F-4.7°C 71% 10.3 mph NW16.6 kmh NW 15.0 mph24.1 kmh 30.45 in1031.2 mb 0.00 in0.0 mm 0.00 in0.0 mm 0.00 in0.0 mm
01:40 AM 31.3°F-0.4°C 23.0°F-5.0°C 71% 9.5 mph NW15.3 kmh NW 17.7 mph28.5 kmh 30.44 in1030.8 mb 0.00 in0.0 mm 0.00 in0.0 mm 0.00 in0.0 mm
01:50 AM 30.9°F-0.6°C 22.6°F-5.2°C 71% 7.4 mph NW11.9 kmh NW 9.4 mph15.1 kmh 30.45 in1031.2 mb 0.00 in0.0 mm 0.00 in0.0 mm 0.00 in0.0 mm
02:00 AM 30.6°F-0.8°C 22.3°F-5.4°C 71% 6.0 mph NW9.7 kmh NW 11.4 mph18.3 kmh 30.46 in1031.5 mb 0.00 in0.0 mm 0.00 in0.0 mm 0.00 in0.0 mm
02:03 AM 31.6°F-0.2°C 23.3°F-4.8°C 71% 4.3 mph NW6.9 kmh NW 11.4 mph18.3 kmh 30.45 in1031.2 mb 0.00 in0.0 mm 0.00 in0.0 mm 0.00 in0.0 mm
02:10 AM 30.2°F-1.0°C 21.6°F-5.8°C 70% 7.2 mph NW11.6 kmh NW 11.4 mph18.3 kmh 30.47 in1031.8 mb 0.00 in0.0 mm 0.00 in0.0 mm 0.00 in0.0 mm
02:20 AM 30.0°F-1.1°C 21.4°F-5.9°C 70% 6.8 mph NW10.9 kmh NW 12.3 mph19.8 kmh 30.46 in1031.5 mb 0.00 in0.0 mm 0.00 in0.0 mm 0.00 in0.0 mm
02:30 AM 29.8°F-1.2°C 21.2°F-6.0°C 70% 4.3 mph NW6.9 kmh NW 7.4 mph11.9 kmh 30.47 in1031.8 mb 0.00 in0.0 mm 0.00 in0.0 mm 0.00 in0.0 mm
02:40 AM 29.7°F-1.3°C 20.7°F-6.3°C 69% 5.0 mph ENE8.0 kmh ENE 6.5 mph10.5 kmh 30.47 in1031.8 mb 0.00 in0.0 mm 0.00 in0.0 mm 0.00 in0.0 mm
02:50 AM 29.7°F-1.3°C 20.7°F-6.3°C 69% 3.2 mph NE5.1 kmh NE 7.6 mph12.2 kmh 30.48 in1032.2 mb 0.00 in0.0 mm 0.00 in0.0 mm 0.00 in0.0 mm
03:00 AM 29.7°F-1.3°C 20.7°F-6.3°C 69% 3.2 mph NE5.1 kmh NE 5.1 mph8.2 kmh 30.47 in1031.8 mb 0.00 in0.0 mm 0.00 in0.0 mm 0.00 in0.0 mm
03:10 AM 29.7°F-1.3°C 20.4°F-6.4°C 68% 6.5 mph E10.5 kmh E 11.2 mph18.0 kmh 30.48 in1032.2 mb 0.00 in0.0 mm 0.00 in0.0 mm 0.00 in0.0 mm
03:20 AM 29.5°F-1.4°C 20.2°F-6.6°C 68% 5.8 mph NE9.3 kmh NE 8.3 mph13.4 kmh 30.48 in1032.2 mb 0.00 in0.0 mm 0.00 in0.0 mm 0.00 in0.0 mm
03:30 AM 29.3°F-1.5°C 19.0°F-7.2°C 65% 2.8 mph E4.5 kmh E 8.5 mph13.7 kmh 30.48 in1032.2 mb 0.00 in0.0 mm 0.00 in0.0 mm 0.00 in0.0 mm
03:40 AM 29.1°F-1.6°C 17.7°F-7.9°C 62% 10.2 mph ESE16.4 kmh ESE 17.4 mph28.0 kmh 30.49 in1032.5 mb 0.00 in0.0 mm 0.00 in0.0 mm 0.00 in0.0 mm
03:50 AM 28.9°F-1.7°C 17.2°F-8.2°C 61% 9.7 mph SE15.6 kmh SE 15.2 mph24.5 kmh 30.49 in1032.5 mb 0.00 in0.0 mm 0.00 in0.0 mm 0.00 in0.0 mm
04:00 AM 28.8°F-1.8°C 16.2°F-8.8°C 59% 7.7 mph E12.4 kmh E 19.5 mph31.4 kmh 30.49 in1032.5 mb 0.00 in0.0 mm 0.00 in0.0 mm 0.00 in0.0 mm
04:10 AM 28.6°F-1.9°C 14.9°F-9.5°C 56% 13.4 mph E21.6 kmh E 23.7 mph38.1 kmh 30.50 in1032.8 mb 0.00 in0.0 mm 0.00 in0.0 mm 0.00 in0.0 mm
04:20 AM 28.2°F-2.1°C 14.1°F-9.9°C 55% 3.9 mph E6.3 kmh E 7.2 mph11.6 kmh 30.50 in1032.8 mb 0.00 in0.0 mm 0.00 in0.0 mm 0.00 in0.0 mm
04:30 AM 27.9°F-2.3°C 13.3°F-10.4°C 54% 3.7 mph E6.0 kmh E 11.9 mph19.2 kmh 30.50 in1032.8 mb 0.00 in0.0 mm 0.00 in0.0 mm 0.00 in0.0 mm
04:40 AM 27.7°F-2.4°C 12.8°F-10.7°C 53% 8.0 mph E12.9 kmh E 12.5 mph20.1 kmh 30.50 in1032.8 mb 0.00 in0.0 mm 0.00 in0.0 mm 0.00 in0.0 mm
04:50 AM 27.5°F-2.5°C 12.2°F-11.0°C 52% 10.1 mph E16.3 kmh E 15.9 mph25.6 kmh 30.51 in1033.2 mb 0.00 in0.0 mm 0.00 in0.0 mm 0.00 in0.0 mm
05:00 AM 27.3°F-2.6°C 12.0°F-11.1°C 52% 3.7 mph E6.0 kmh E 8.3 mph13.4 kmh 30.51 in1033.2 mb 0.00 in0.0 mm 0.00 in0.0 mm 0.00 in0.0 mm
05:10 AM 27.1°F-2.7°C 10.5°F-11.9°C 49% 4.6 mph NE7.4 kmh NE 7.4 mph11.9 kmh 30.52 in1033.5 mb 0.00 in0.0 mm 0.00 in0.0 mm 0.00 in0.0 mm
05:20 AM 27.1°F-2.7°C 10.5°F-11.9°C 49% 3.9 mph E6.3 kmh E 5.8 mph9.3 kmh 30.52 in1033.5 mb 0.00 in0.0 mm 0.00 in0.0 mm 0.00 in0.0 mm
05:30 AM 27.0°F-2.8°C 9.9°F-12.3°C 48% 8.8 mph E14.2 kmh E 14.1 mph22.7 kmh 30.51 in1033.2 mb 0.00 in0.0 mm 0.00 in0.0 mm 0.00 in0.0 mm
05:40 AM 27.0°F-2.8°C 9.9°F-12.3°C 48% 7.9 mph E12.7 kmh E 14.1 mph22.7 kmh 30.51 in1033.2 mb 0.00 in0.0 mm 0.00 in0.0 mm 0.00 in0.0 mm
05:50 AM 27.0°F-2.8°C 9.4°F-12.6°C 47% 7.5 mph E12.1 kmh E 14.3 mph23.0 kmh 30.51 in1033.2 mb 0.00 in0.0 mm 0.00 in0.0 mm 0.00 in0.0 mm
06:00 AM 26.8°F-2.9°C 9.2°F-12.7°C 47% 6.7 mph E10.8 kmh E 11.4 mph18.3 kmh 30.52 in1033.5 mb 0.00 in0.0 mm 0.00 in0.0 mm 0.00 in0.0 mm
06:10 AM 26.8°F-2.9°C 9.2°F-12.7°C 47% 5.5 mph E8.9 kmh E 9.6 mph15.4 kmh 30.52 in1033.5 mb 0.00 in0.0 mm 0.00 in0.0 mm 0.00 in0.0 mm
06:20 AM 26.6°F-3.0°C 9.1°F-12.7°C 47% 2.8 mph ENE4.5 kmh ENE 7.8 mph12.6 kmh 30.52 in1033.5 mb 0.00 in0.0 mm 0.00 in0.0 mm 0.00 in0.0 mm
06:30 AM 27.0°F-2.8°C 8.9°F-12.8°C 46% 6.9 mph E11.1 kmh E 20.6 mph33.2 kmh 30.52 in1033.5 mb 0.00 in0.0 mm 0.00 in0.0 mm 0.00 in0.0 mm
06:40 AM 27.0°F-2.8°C 8.9°F-12.8°C 46% 7.7 mph E12.4 kmh E 20.6 mph33.2 kmh 30.52 in1033.5 mb 0.00 in0.0 mm 0.00 in0.0 mm 0.00 in0.0 mm
06:50 AM 27.1°F-2.7°C 8.6°F-13.0°C 45% 6.3 mph ENE10.1 kmh ENE 14.1 mph22.7 kmh 30.52 in1033.5 mb 0.00 in0.0 mm 0.00 in0.0 mm 0.00 in0.0 mm
07:00 AM 27.1°F-2.7°C 8.1°F-13.3°C 44% 9.6 mph E15.4 kmh E 14.5 mph23.3 kmh 30.53 in1033.9 mb 0.00 in0.0 mm 0.00 in0.0 mm 0.00 in0.0 mm
07:10 AM 27.1°F-2.7°C 8.1°F-13.3°C 44% 7.8 mph E12.6 kmh E 12.3 mph19.8 kmh 30.52 in1033.5 mb 0.00 in0.0 mm 0.00 in0.0 mm 0.00 in0.0 mm
07:20 AM 27.0°F-2.8°C 7.9°F-13.4°C 44% 11.5 mph E18.5 kmh E 13.6 mph21.9 kmh 30.54 in1034.2 mb 0.00 in0.0 mm 0.00 in0.0 mm 0.00 in0.0 mm
07:30 AM 27.0°F-2.8°C 7.4°F-13.7°C 43% 9.1 mph E14.6 kmh E 19.5 mph31.4 kmh 30.54 in1034.2 mb 0.00 in0.0 mm 0.00 in0.0 mm 0.00 in0.0 mm
07:40 AM 27.1°F-2.7°C 7.6°F-13.6°C 43% 12.5 mph E20.1 kmh E 19.5 mph31.4 kmh 30.54 in1034.2 mb 0.00 in0.0 mm 0.00 in0.0 mm 0.00 in0.0 mm
07:50 AM 27.0°F-2.8°C 7.9°F-13.4°C 44% 7.6 mph ESE12.2 kmh ESE 13.0 mph20.9 kmh 30.55 in1034.5 mb 0.00 in0.0 mm 0.00 in0.0 mm 0.00 in0.0 mm
08:00 AM 27.0°F-2.8°C 7.9°F-13.4°C 44% 6.8 mph E10.9 kmh E 11.2 mph18.0 kmh 30.54 in1034.2 mb 0.00 in0.0 mm 0.00 in0.0 mm 0.00 in0.0 mm
08:10 AM 27.1°F-2.7°C 8.1°F-13.3°C 44% 6.8 mph E10.9 kmh E 8.3 mph13.4 kmh 30.55 in1034.5 mb 0.00 in0.0 mm 0.00 in0.0 mm 0.00 in0.0 mm
08:20 AM 27.1°F-2.7°C 7.6°F-13.6°C 43% 6.2 mph E10.0 kmh E 7.6 mph12.2 kmh 30.55 in1034.5 mb 0.00 in0.0 mm 0.00 in0.0 mm 0.00 in0.0 mm
08:30 AM 28.2°F-2.1°C 8.6°F-13.0°C 43% 4.1 mph ESE6.6 kmh ESE 7.4 mph11.9 kmh 30.55 in1034.5 mb 0.00 in0.0 mm 0.00 in0.0 mm 0.00 in0.0 mm
08:40 AM 28.9°F-1.7°C 8.7°F-12.9°C 42% 4.7 mph E7.6 kmh E 8.1 mph13.0 kmh 30.55 in1034.5 mb 0.00 in0.0 mm 0.00 in0.0 mm 0.00 in0.0 mm
08:50 AM 29.8°F-1.2°C 9.0°F-12.8°C 41% 4.9 mph E7.9 kmh E 8.1 mph13.0 kmh 30.54 in1034.2 mb 0.00 in0.0 mm 0.00 in0.0 mm 0.00 in0.0 mm
09:00 AM 29.5°F-1.4°C 8.6°F-13.0°C 41% 2.7 mph NE4.3 kmh NE 6.7 mph10.8 kmh 30.55 in1034.5 mb 0.00 in0.0 mm 0.00 in0.0 mm 0.00 in0.0 mm
09:10 AM 29.7°F-1.3°C 8.8°F-12.9°C 41% 5.1 mph NE8.2 kmh NE 6.7 mph10.8 kmh 30.54 in1034.2 mb 0.00 in0.0 mm 0.00 in0.0 mm 0.00 in0.0 mm
09:20 AM 30.4°F-0.9°C 9.5°F-12.5°C 41% 3.3 mph E5.3 kmh E 6.5 mph10.5 kmh 30.54 in1034.2 mb 0.00 in0.0 mm 0.00 in0.0 mm 0.00 in0.0 mm
09:30 AM 30.7°F-0.7°C 9.2°F-12.7°C 40% 1.3 mph ENE2.1 kmh ENE 3.8 mph6.1 kmh 30.54 in1034.2 mb 0.00 in0.0 mm 0.00 in0.0 mm 0.00 in0.0 mm
09:40 AM 31.1°F-0.5°C 9.6°F-12.4°C 40% 2.0 mph NE3.2 kmh NE 8.1 mph13.0 kmh 30.55 in1034.5 mb 0.00 in0.0 mm 0.00 in0.0 mm 0.00 in0.0 mm
09:50 AM 31.1°F-0.5°C 9.0°F-12.8°C 39% 6.9 mph NE11.1 kmh NE 13.0 mph20.9 kmh 30.54 in1034.2 mb 0.00 in0.0 mm 0.00 in0.0 mm 0.00 in0.0 mm
10:00 AM 31.3°F-0.4°C 9.2°F-12.7°C 39% 2.4 mph SE3.9 kmh SE 7.8 mph12.6 kmh 30.55 in1034.5 mb 0.00 in0.0 mm 0.00 in0.0 mm 0.00 in0.0 mm
10:10 AM 31.8°F-0.1°C 8.5°F-13.1°C 37% 3.2 mph E5.1 kmh E 10.7 mph17.2 kmh 30.55 in1034.5 mb 0.00 in0.0 mm 0.00 in0.0 mm 0.00 in0.0 mm
10:20 AM 32.0°F0.0°C 8.6°F-13.0°C 37% 2.9 mph ESE4.7 kmh ESE 5.4 mph8.7 kmh 30.55 in1034.5 mb 0.00 in0.0 mm 0.00 in0.0 mm 0.00 in0.0 mm
10:30 AM 31.8°F-0.1°C 8.5°F-13.1°C 37% 4.3 mph SE6.9 kmh SE 6.9 mph11.1 kmh 30.55 in1034.5 mb 0.00 in0.0 mm 0.00 in0.0 mm 0.00 in0.0 mm
10:40 AM 32.4°F0.2°C 8.9°F-12.8°C 37% 3.1 mph SE5.0 kmh SE 6.3 mph10.1 kmh 30.56 in1034.9 mb 0.00 in0.0 mm 0.00 in0.0 mm 0.00 in0.0 mm
10:50 AM 33.1°F0.6°C 9.0°F-12.8°C 36% 2.1 mph SW3.4 kmh SW 3.1 mph5.0 kmh 30.56 in1034.9 mb 0.00 in0.0 mm 0.00 in0.0 mm 0.00 in0.0 mm
11:00 AM 32.9°F0.5°C 8.2°F-13.2°C 35% 5.2 mph SSE8.4 kmh SSE 9.6 mph15.4 kmh 30.56 in1034.9 mb 0.00 in0.0 mm 0.00 in0.0 mm 0.00 in0.0 mm
11:10 AM 34.5°F1.4°C 9.6°F-12.4°C 35% 0.9 mph SE1.4 kmh SE 6.0 mph9.7 kmh 30.56 in1034.9 mb 0.00 in0.0 mm 0.00 in0.0 mm 0.00 in0.0 mm
11:20 AM 34.9°F1.6°C 9.3°F-12.6°C 34% 1.4 mph ENE2.3 kmh ENE 3.4 mph5.5 kmh 30.57 in1035.2 mb 0.00 in0.0 mm 0.00 in0.0 mm 0.00 in0.0 mm
11:30 AM 36.5°F2.5°C 10.1°F-12.2°C 33% 2.5 mph E4.0 kmh E 6.5 mph10.5 kmh 30.57 in1035.2 mb 0.00 in0.0 mm 0.00 in0.0 mm 0.00 in0.0 mm
11:40 AM 36.0°F2.2°C 10.3°F-12.1°C 34% 3.5 mph SE5.6 kmh SE 6.3 mph10.1 kmh 30.56 in1034.9 mb 0.00 in0.0 mm 0.00 in0.0 mm 0.00 in0.0 mm
11:50 AM 36.3°F2.4°C 10.6°F-11.9°C 34% 1.0 mph NE1.6 kmh NE 3.6 mph5.8 kmh 30.56 in1034.9 mb 0.00 in0.0 mm 0.00 in0.0 mm 0.00 in0.0 mm
12:00 PM 37.0°F2.8°C 10.6°F-11.9°C 33% 0.7 mph E1.1 kmh E 1.6 mph2.6 kmh 30.55 in1034.5 mb 0.00 in0.0 mm 0.00 in0.0 mm 0.00 in0.0 mm
12:10 PM 36.3°F2.4°C 9.9°F-12.3°C 33% 2.3 mph E3.7 kmh E 6.3 mph10.1 kmh 30.55 in1034.5 mb 0.00 in0.0 mm 0.00 in0.0 mm 0.00 in0.0 mm
12:20 PM 37.9°F3.3°C 11.3°F-11.5°C 33% 1.5 mph NNE2.4 kmh NNE 7.2 mph11.6 kmh 30.55 in1034.5 mb 0.00 in0.0 mm 0.00 in0.0 mm 0.00 in0.0 mm
12:30 PM 37.2°F2.9°C 9.3°F-12.6°C 31% 2.3 mph NE3.7 kmh NE 10.3 mph16.6 kmh 30.55 in1034.5 mb 0.00 in0.0 mm 0.00 in0.0 mm 0.00 in0.0 mm
12:40 PM 37.8°F3.2°C 9.8°F-12.3°C 31% 4.8 mph E7.7 kmh E 10.3 mph16.6 kmh 30.55 in1034.5 mb 0.00 in0.0 mm 0.00 in0.0 mm 0.00 in0.0 mm
12:50 PM 37.6°F3.1°C 9.6°F-12.4°C 31% 3.9 mph ENE6.3 kmh ENE 9.8 mph15.8 kmh 30.54 in1034.2 mb 0.00 in0.0 mm 0.00 in0.0 mm 0.00 in0.0 mm
01:00 PM 39.0°F3.9°C 10.2°F-12.1°C 30% 3.7 mph WNW6.0 kmh WNW 9.8 mph15.8 kmh 30.54 in1034.2 mb 0.00 in0.0 mm 0.00 in0.0 mm 0.00 in0.0 mm
01:10 PM 38.8°F3.8°C 10.0°F-12.2°C 30% 2.5 mph ESE4.0 kmh ESE 6.9 mph11.1 kmh 30.54 in1034.2 mb 0.00 in0.0 mm 0.00 in0.0 mm 0.00 in0.0 mm
01:20 PM 39.0°F3.9°C 10.2°F-12.1°C 30% 2.0 mph ENE3.2 kmh ENE 6.9 mph11.1 kmh 30.54 in1034.2 mb 0.00 in0.0 mm 0.00 in0.0 mm 0.00 in0.0 mm
01:30 PM 39.4°F4.1°C 9.7°F-12.4°C 29% 3.6 mph NE5.8 kmh NE 17.2 mph27.7 kmh 30.54 in1034.2 mb 0.00 in0.0 mm 0.00 in0.0 mm 0.00 in0.0 mm
01:40 PM 39.4°F4.1°C 9.7°F-12.4°C 29% 6.3 mph ESE10.1 kmh ESE 17.2 mph27.7 kmh 30.54 in1034.2 mb 0.00 in0.0 mm 0.00 in0.0 mm 0.00 in0.0 mm
01:50 PM 39.0°F3.9°C 9.4°F-12.6°C 29% 7.8 mph E12.6 kmh E 15.2 mph24.5 kmh 30.53 in1033.9 mb 0.00 in0.0 mm 0.00 in0.0 mm 0.00 in0.0 mm
02:00 PM 39.4°F4.1°C 9.7°F-12.4°C 29% 3.8 mph E6.1 kmh E 15.2 mph24.5 kmh 30.54 in1034.2 mb 0.00 in0.0 mm 0.00 in0.0 mm 0.00 in0.0 mm
02:10 PM 38.1°F3.4°C 8.6°F-13.0°C 29% 6.2 mph E10.0 kmh E 14.3 mph23.0 kmh 30.54 in1034.2 mb 0.00 in0.0 mm 0.00 in0.0 mm 0.00 in0.0 mm
02:20 PM 38.5°F3.6°C 8.9°F-12.8°C 29% 3.8 mph NE6.1 kmh NE 10.1 mph16.3 kmh 30.54 in1034.2 mb 0.00 in0.0 mm 0.00 in0.0 mm 0.00 in0.0 mm
02:30 PM 39.4°F4.1°C 10.5°F-11.9°C 30% 1.7 mph E2.7 kmh E 13.2 mph21.2 kmh 30.54 in1034.2 mb 0.00 in0.0 mm 0.00 in0.0 mm 0.00 in0.0 mm
02:40 PM 38.5°F3.6°C 9.7°F-12.4°C 30% 3.6 mph E5.8 kmh E 13.2 mph21.2 kmh 30.54 in1034.2 mb 0.00 in0.0 mm 0.00 in0.0 mm 0.00 in0.0 mm
02:50 PM 38.8°F3.8°C 10.0°F-12.2°C 30% 0.4 mph WNW0.6 kmh WNW 2.0 mph3.2 kmh 30.54 in1034.2 mb 0.00 in0.0 mm 0.00 in0.0 mm 0.00 in0.0 mm
03:00 PM 39.0°F3.9°C 10.9°F-11.7°C 31% Calm Calm -- 30.54 in1034.2 mb 0.00 in0.0 mm 0.00 in0.0 mm 0.00 in0.0 mm
03:10 PM 38.8°F3.8°C 10.7°F-11.8°C 31% 2.0 mph E3.2 kmh E 7.8 mph12.6 kmh 30.54 in1034.2 mb 0.00 in0.0 mm 0.00 in0.0 mm 0.00 in0.0 mm
03:20 PM 37.6°F3.1°C 9.6°F-12.4°C 31% 5.4 mph E8.7 kmh E 7.4 mph11.9 kmh 30.54 in1034.2 mb 0.00 in0.0 mm 0.00 in0.0 mm 0.00 in0.0 mm
03:30 PM 36.9°F2.7°C 9.7°F-12.4°C 32% 3.5 mph SSE5.6 kmh SSE 6.7 mph10.8 kmh 30.54 in1034.2 mb 0.00 in0.0 mm 0.00 in0.0 mm 0.00 in0.0 mm
03:40 PM 36.9°F2.7°C 10.4°F-12.0°C 33% 1.7 mph E2.7 kmh E 8.3 mph13.4 kmh 30.54 in1034.2 mb 0.00 in0.0 mm 0.00 in0.0 mm 0.00 in0.0 mm
03:50 PM 36.5°F2.5°C 10.1°F-12.2°C 33% 3.4 mph E5.5 kmh E 8.3 mph13.4 kmh 30.54 in1034.2 mb 0.00 in0.0 mm 0.00 in0.0 mm 0.00 in0.0 mm
04:00 PM 36.7°F2.6°C 10.2°F-12.1°C 33% 3.3 mph NE5.3 kmh NE 6.0 mph9.7 kmh 30.53 in1033.9 mb 0.00 in0.0 mm 0.00 in0.0 mm 0.00 in0.0 mm
04:10 PM 36.7°F2.6°C 10.2°F-12.1°C 33% 3.1 mph SE5.0 kmh SE 9.6 mph15.4 kmh 30.54 in1034.2 mb 0.00 in0.0 mm 0.00 in0.0 mm 0.00 in0.0 mm
04:20 PM 36.3°F2.4°C 9.9°F-12.3°C 33% 2.8 mph E4.5 kmh E 6.7 mph10.8 kmh 30.54 in1034.2 mb 0.00 in0.0 mm 0.00 in0.0 mm 0.00 in0.0 mm
04:30 PM 35.8°F2.1°C 9.4°F-12.6°C 33% 1.1 mph NE1.8 kmh NE 3.4 mph5.5 kmh 30.54 in1034.2 mb 0.00 in0.0 mm 0.00 in0.0 mm 0.00 in0.0 mm
04:40 PM 35.4°F1.9°C 9.1°F-12.7°C 33% 5.4 mph E8.7 kmh E 13.2 mph21.2 kmh 30.54 in1034.2 mb 0.00 in0.0 mm 0.00 in0.0 mm 0.00 in0.0 mm
04:50 PM 35.4°F1.9°C 9.1°F-12.7°C 33% 5.3 mph E8.5 kmh E 13.2 mph21.2 kmh 30.53 in1033.9 mb 0.00 in0.0 mm 0.00 in0.0 mm 0.00 in0.0 mm
05:00 PM 34.9°F1.6°C 8.6°F-13.0°C 33% 3.8 mph E6.1 kmh E 10.5 mph16.9 kmh 30.53 in1033.9 mb 0.00 in0.0 mm 0.00 in0.0 mm 0.00 in0.0 mm
05:10 PM 34.7°F1.5°C 8.5°F-13.1°C 33% 4.5 mph E7.2 kmh E 8.9 mph14.3 kmh 30.53 in1033.9 mb 0.00 in0.0 mm 0.00 in0.0 mm 0.00 in0.0 mm
05:20 PM 34.3°F1.3°C 8.2°F-13.2°C 33% 6.4 mph E10.3 kmh E 8.9 mph14.3 kmh 30.53 in1033.9 mb 0.00 in0.0 mm 0.00 in0.0 mm 0.00 in0.0 mm
05:30 PM 33.3°F0.7°C 7.9°F-13.4°C 34% 4.4 mph E7.1 kmh E 8.3 mph13.4 kmh 30.53 in1033.9 mb 0.00 in0.0 mm 0.00 in0.0 mm 0.00 in0.0 mm
05:40 PM 32.7°F0.4°C 7.4°F-13.7°C 34% 5.7 mph E9.2 kmh E 10.7 mph17.2 kmh 30.53 in1033.9 mb 0.00 in0.0 mm 0.00 in0.0 mm 0.00 in0.0 mm
05:50 PM 31.8°F-0.1°C 7.2°F-13.8°C 35% 5.1 mph E8.2 kmh E 9.4 mph15.1 kmh 30.54 in1034.2 mb 0.00 in0.0 mm 0.00 in0.0 mm 0.00 in0.0 mm
06:00 PM 31.8°F-0.1°C 7.2°F-13.8°C 35% 2.5 mph ENE4.0 kmh ENE 6.9 mph11.1 kmh 30.54 in1034.2 mb 0.00 in0.0 mm 0.00 in0.0 mm 0.00 in0.0 mm
06:10 PM 31.3°F-0.4°C 7.4°F-13.7°C 36% 4.2 mph E6.8 kmh E 11.4 mph18.3 kmh 30.54 in1034.2 mb 0.00 in0.0 mm 0.00 in0.0 mm 0.00 in0.0 mm
06:20 PM 31.1°F-0.5°C 7.2°F-13.8°C 36% 4.4 mph ENE7.1 kmh ENE 9.6 mph15.4 kmh 30.55 in1034.5 mb 0.00 in0.0 mm 0.00 in0.0 mm 0.00 in0.0 mm
06:30 PM 30.9°F-0.6°C 7.7°F-13.5°C 37% 3.1 mph E5.0 kmh E 6.7 mph10.8 kmh 30.55 in1034.5 mb 0.00 in0.0 mm 0.00 in0.0 mm 0.00 in0.0 mm
06:40 PM 30.7°F-0.7°C 7.5°F-13.6°C 37% 0.3 mph E0.5 kmh E 1.6 mph2.6 kmh 30.56 in1034.9 mb 0.00 in0.0 mm 0.00 in0.0 mm 0.00 in0.0 mm
06:50 PM 30.4°F-0.9°C 7.8°F-13.4°C 38% 4.2 mph NE6.8 kmh NE 8.1 mph13.0 kmh 30.56 in1034.9 mb 0.00 in0.0 mm 0.00 in0.0 mm 0.00 in0.0 mm
07:00 PM 30.0°F-1.1°C 7.4°F-13.7°C 38% 4.3 mph ENE6.9 kmh ENE 13.6 mph21.9 kmh 30.57 in1035.2 mb 0.00 in0.0 mm 0.00 in0.0 mm 0.00 in0.0 mm
07:10 PM 29.8°F-1.2°C 7.9°F-13.4°C 39% 3.2 mph S5.1 kmh S 7.2 mph11.6 kmh 30.56 in1034.9 mb 0.00 in0.0 mm 0.00 in0.0 mm 0.00 in0.0 mm
07:20 PM 29.3°F-1.5°C 7.9°F-13.4°C 40% 2.7 mph NNE4.3 kmh NNE 7.2 mph11.6 kmh 30.57 in1035.2 mb 0.00 in0.0 mm 0.00 in0.0 mm 0.00 in0.0 mm
07:30 PM 29.1°F-1.6°C 7.8°F-13.4°C 40% 4.6 mph ENE7.4 kmh ENE 8.7 mph14.0 kmh 30.57 in1035.2 mb 0.00 in0.0 mm 0.00 in0.0 mm 0.00 in0.0 mm
07:40 PM 28.8°F-1.8°C 8.0°F-13.3°C 41% 1.5 mph ENE2.4 kmh ENE 6.0 mph9.7 kmh 30.57 in1035.2 mb 0.00 in0.0 mm 0.00 in0.0 mm 0.00 in0.0 mm
07:50 PM 28.2°F-2.1°C 8.0°F-13.3°C 42% 1.9 mph WNW3.1 kmh WNW 6.5 mph10.5 kmh 30.58 in1035.6 mb 0.00 in0.0 mm 0.00 in0.0 mm 0.00 in0.0 mm
08:00 PM 28.2°F-2.1°C 8.0°F-13.3°C 42% 1.1 mph NNW1.8 kmh NNW 3.4 mph5.5 kmh 30.58 in1035.6 mb 0.00 in0.0 mm 0.00 in0.0 mm 0.00 in0.0 mm
08:10 PM 28.2°F-2.1°C 8.6°F-13.0°C 43% 1.7 mph E2.7 kmh E 4.7 mph7.6 kmh 30.58 in1035.6 mb 0.00 in0.0 mm 0.00 in0.0 mm 0.00 in0.0 mm
08:20 PM 28.0°F-2.2°C 8.4°F-13.1°C 43% 2.3 mph E3.7 kmh E 9.4 mph15.1 kmh 30.58 in1035.6 mb 0.00 in0.0 mm 0.00 in0.0 mm 0.00 in0.0 mm
08:30 PM 28.0°F-2.2°C 8.9°F-12.8°C 44% 2.2 mph SE3.5 kmh SE 6.3 mph10.1 kmh 30.58 in1035.6 mb 0.00 in0.0 mm 0.00 in0.0 mm 0.00 in0.0 mm
08:40 PM 27.5°F-2.5°C 8.4°F-13.1°C 44% 0.7 mph S1.1 kmh S 3.4 mph5.5 kmh 30.59 in1035.9 mb 0.00 in0.0 mm 0.00 in0.0 mm 0.00 in0.0 mm
08:50 PM 27.1°F-2.7°C 8.6°F-13.0°C 45% 0.4 mph NW0.6 kmh NW 1.8 mph2.9 kmh 30.59 in1035.9 mb 0.00 in0.0 mm 0.00 in0.0 mm 0.00 in0.0 mm
09:00 PM 27.1°F-2.7°C 8.6°F-13.0°C 45% 1.0 mph ENE1.6 kmh ENE 4.7 mph7.6 kmh 30.60 in1036.2 mb 0.00 in0.0 mm 0.00 in0.0 mm 0.00 in0.0 mm
09:10 PM 26.8°F-2.9°C 8.7°F-12.9°C 46% Calm Calm -- 30.61 in1036.6 mb 0.00 in0.0 mm 0.00 in0.0 mm 0.00 in0.0 mm
09:20 PM 26.6°F-3.0°C 8.6°F-13.0°C 46% 0.4 mph E0.6 kmh E 2.0 mph3.2 kmh 30.61 in1036.6 mb 0.00 in0.0 mm 0.00 in0.0 mm 0.00 in0.0 mm
09:30 PM 26.4°F-3.1°C 8.9°F-12.8°C 47% Calm Calm -- 30.61 in1036.6 mb 0.00 in0.0 mm 0.00 in0.0 mm 0.00 in0.0 mm
09:40 PM 26.2°F-3.2°C 8.7°F-12.9°C 47% Calm Calm -- 30.61 in1036.6 mb 0.00 in0.0 mm 0.00 in0.0 mm 0.00 in0.0 mm
09:50 PM 26.1°F-3.3°C 9.0°F-12.8°C 48% 4.7 mph SSE7.6 kmh SSE 11.0 mph17.7 kmh 30.61 in1036.6 mb 0.00 in0.0 mm 0.00 in0.0 mm 0.00 in0.0 mm
10:00 PM 25.7°F-3.5°C 8.7°F-12.9°C 48% 0.7 mph SE1.1 kmh SE 3.1 mph5.0 kmh 30.61 in1036.6 mb 0.00 in0.0 mm 0.00 in0.0 mm 0.00 in0.0 mm
10:10 PM 25.5°F-3.6°C 8.5°F-13.1°C 48% Calm Calm -- 30.62 in1036.9 mb 0.00 in0.0 mm 0.00 in0.0 mm 0.00 in0.0 mm
10:20 PM 25.5°F-3.6°C 8.5°F-13.1°C 48% 2.4 mph E3.9 kmh E 6.5 mph10.5 kmh 30.61 in1036.6 mb 0.00 in0.0 mm 0.00 in0.0 mm 0.00 in0.0 mm
10:30 PM 25.5°F-3.6°C 8.5°F-13.1°C 48% 2.0 mph E3.2 kmh E 4.9 mph7.9 kmh 30.61 in1036.6 mb 0.00 in0.0 mm 0.00 in0.0 mm 0.00 in0.0 mm
10:40 PM 25.5°F-3.6°C 8.5°F-13.1°C 48% 3.5 mph E5.6 kmh E 7.2 mph11.6 kmh 30.62 in1036.9 mb 0.00 in0.0 mm 0.00 in0.0 mm 0.00 in0.0 mm
10:50 PM 25.3°F-3.7°C 8.8°F-12.9°C 49% 1.7 mph SSE2.7 kmh SSE 5.8 mph9.3 kmh 30.62 in1036.9 mb 0.00 in0.0 mm 0.00 in0.0 mm 0.00 in0.0 mm
11:00 PM 25.3°F-3.7°C 8.8°F-12.9°C 49% 4.9 mph ESE7.9 kmh ESE 7.8 mph12.6 kmh 30.62 in1036.9 mb 0.00 in0.0 mm 0.00 in0.0 mm 0.00 in0.0 mm
11:10 PM 25.2°F-3.8°C 8.7°F-12.9°C 49% 5.0 mph E8.0 kmh E 7.8 mph12.6 kmh 30.62 in1036.9 mb 0.00 in0.0 mm 0.00 in0.0 mm 0.00 in0.0 mm
11:20 PM 25.0°F-3.9°C 8.9°F-12.8°C 50% 5.5 mph E8.9 kmh E 11.4 mph18.3 kmh 30.61 in1036.6 mb 0.00 in0.0 mm 0.00 in0.0 mm 0.00 in0.0 mm
11:30 PM 25.0°F-3.9°C 8.9°F-12.8°C 50% 5.3 mph E8.5 kmh E 11.0 mph17.7 kmh 30.62 in1036.9 mb 0.00 in0.0 mm 0.00 in0.0 mm 0.00 in0.0 mm
11:40 PM 24.8°F-4.0°C 8.8°F-12.9°C 50% 5.0 mph E8.0 kmh E 6.5 mph10.5 kmh 30.61 in1036.6 mb 0.00 in0.0 mm 0.00 in0.0 mm 0.00 in0.0 mm
11:50 PM 24.6°F-4.1°C 8.6°F-13.0°C 50% 5.2 mph ESE8.4 kmh ESE 11.0 mph17.7 kmh 30.61 in1036.6 mb 0.00 in0.0 mm 0.00 in0.0 mm 0.00 in0.0 mm